Aegean Vision — SVCO7 — position and weather

sailwx.info

Track history (hours):
 
Tides and Currents Weather Stations Pressure Air Temp Water Temp Dewpoint Dewpoint Depression Visibility Wind Speed Wind Dir Waves Ship Positions

Aegean Vision

Last reported at 2017-Dec-18 08:25 UTC. Time now 2017-Dec-18 16:48 UTC.
Position N 10°08' W 017°52'.

Length 274 m; draft 14.4 m.

Type: Ship (hazmat cat A). MMSI: 241493000.

Date/timePositionNaut miles runAvg speedWind from/ knotsBaromVisibWave heightAir tempDewpointWater temp
2017-Dec-18 08:25N 10°08' W 017°52'512.4
2017-Dec-18 08:00N 10°04' W 017°49'712.4
2017-Dec-18 07:27N 09°59' W 017°44'512.3
2017-Dec-18 07:00N 09°55' W 017°41'612.2
2017-Dec-18 06:30N 09°50' W 017°37'712.2
2017-Dec-18 05:58N 09°45' W 017°32'6712.2
2017-Dec-18 00:26N 08°55' W 016°47'512.0
2017-Dec-18 00:00N 08°51' W 016°44'812.0
2017-Dec-17 23:22N 08°45' W 016°39'811.9
2017-Dec-17 22:41N 08°39' W 016°33'211.9
2017-Dec-17 22:30N 08°37' W 016°32'612.1
2017-Dec-17 22:00N 08°33' W 016°28'612.2
2017-Dec-17 21:29N 08°28' W 016°24'612.2
2017-Dec-17 21:00N 08°24' W 016°20'712.1
2017-Dec-17 20:25N 08°18' W 016°15'3812.0
2017-Dec-17 17:18N 07°50' W 015°49'1612.0
2017-Dec-17 15:59N 07°39' W 015°39'612.3
2017-Dec-17 15:30N 07°34' W 015°35'  
2017-Dec-09 09:39S 06°05' E 011°24'1 3.8
2017-Dec-09 09:16S 06°04' E 011°25'313.3
2017-Dec-09 09:00S 06°06' E 011°26'  
Track history (hours):
 
Tides and Currents Weather Stations Pressure Air Temp Water Temp Dewpoint Dewpoint Depression Visibility Wind Speed Wind Dir Waves Ship Positions

Aegean Vision

Last reported at 2017-Dec-18 08:25 UTC. Time now 2017-Dec-18 16:48 UTC.
Position N 10°08' W 017°52'.

Length 274 m; draft 14.4 m.

Type: Ship (hazmat cat A). MMSI: 241493000.

Date/timePositionNaut miles runAvg speedWind from/ knotsBaromVisibWave heightAir tempDewpointWater temp
2017-Dec-18 08:25N 10°08' W 017°52'512.4
2017-Dec-18 08:00N 10°04' W 017°49'712.4
2017-Dec-18 07:27N 09°59' W 017°44'512.3
2017-Dec-18 07:00N 09°55' W 017°41'612.2
2017-Dec-18 06:30N 09°50' W 017°37'712.2
2017-Dec-18 05:58N 09°45' W 017°32'6712.2
2017-Dec-18 00:26N 08°55' W 016°47'512.0
2017-Dec-18 00:00N 08°51' W 016°44'812.0
2017-Dec-17 23:22N 08°45' W 016°39'811.9
2017-Dec-17 22:41N 08°39' W 016°33'211.9
2017-Dec-17 22:30N 08°37' W 016°32'612.1
2017-Dec-17 22:00N 08°33' W 016°28'612.2
2017-Dec-17 21:29N 08°28' W 016°24'612.2
2017-Dec-17 21:00N 08°24' W 016°20'712.1
2017-Dec-17 20:25N 08°18' W 016°15'3812.0
2017-Dec-17 17:18N 07°50' W 015°49'1612.0
2017-Dec-17 15:59N 07°39' W 015°39'612.3
2017-Dec-17 15:30N 07°34' W 015°35'  
2017-Dec-09 09:39S 06°05' E 011°24'1 3.8
2017-Dec-09 09:16S 06°04' E 011°25'313.3
2017-Dec-09 09:00S 06°06' E 011°26'  

Dump ship's entire track history